createdAt,value
2023-03-17T00:04:24.210Z,77.37
2023-03-17T00:09:28.956Z,78.01
2023-03-17T00:14:32.154Z,77.49
2023-03-17T00:19:36.590Z,78.14
2023-03-17T00:24:41.242Z,78.48
2023-03-17T00:29:44.455Z,79.26
2023-03-17T00:34:47.878Z,79.06
2023-03-17T00:39:52.494Z,79.07
2023-03-17T00:44:55.725Z,79.38
2023-03-17T00:49:58.947Z,78.68
2023-03-17T00:55:03.684Z,78.68
2023-03-17T01:00:14.818Z,78.21
2023-03-17T01:05:18.356Z,79.36
2023-03-17T01:10:25.876Z,79.37
2023-03-17T01:15:31.673Z,79.95
2023-03-17T01:20:35.886Z,79.50
2023-03-17T01:25:42.849Z,79.48
2023-03-17T01:30:47.089Z,79.90
2023-03-17T01:35:52.137Z,79.84
2023-03-17T01:40:56.879Z,80.00
2023-03-17T01:46:29.335Z,80.34
2023-03-17T01:51:35.957Z,79.23
2023-03-17T01:56:43.376Z,78.98
2023-03-17T02:01:50.095Z,80.33
2023-03-17T02:06:58.488Z,79.78
2023-03-17T02:12:05.364Z,79.34
2023-03-17T02:17:08.865Z,79.83
2023-03-17T02:22:13.889Z,80.07
2023-03-17T02:27:19.412Z,80.86
2023-03-17T02:32:22.777Z,80.05
2023-03-17T02:37:27.306Z,79.92
2023-03-17T02:42:30.746Z,79.99
2023-03-17T02:47:33.987Z,80.42
2023-03-17T02:52:38.511Z,80.50
2023-03-17T02:57:42.022Z,80.29
2023-03-17T03:02:45.167Z,80.07
2023-03-17T03:07:49.698Z,80.08
2023-03-17T03:12:52.988Z,80.89
2023-03-17T03:17:56.116Z,81.28
2023-03-17T03:23:00.702Z,80.72
2023-03-17T03:28:03.855Z,80.48
2023-03-17T03:33:07.060Z,79.70
2023-03-17T03:38:12.585Z,79.29
2023-03-17T03:43:23.380Z,79.02
2023-03-17T03:48:27.075Z,79.15
2023-03-17T03:53:32.083Z,79.03
2023-03-17T03:58:34.954Z,79.64
2023-03-17T04:03:38.212Z,79.46
2023-03-17T04:08:42.757Z,79.55
2023-03-17T04:13:45.957Z,79.48
2023-03-17T04:18:49.151Z,79.26
2023-03-17T04:23:53.784Z,78.89
2023-03-17T04:28:56.941Z,78.87
2023-03-17T04:34:00.117Z,78.62
2023-03-17T04:39:04.819Z,78.29
2023-03-17T04:44:08.867Z,79.21
2023-03-17T04:49:12.155Z,78.38
2023-03-17T04:54:16.706Z,79.41
2023-03-17T04:59:19.863Z,79.92
2023-03-17T05:04:31.062Z,79.87
2023-03-17T05:09:36.474Z,79.29
2023-03-17T05:14:39.782Z,78.95
2023-03-17T05:19:43.268Z,80.08
2023-03-17T05:24:48.029Z,79.84
2023-03-17T05:29:51.128Z,80.52
2023-03-17T05:34:54.565Z,80.02
2023-03-17T05:39:59.589Z,80.95
2023-03-17T05:45:02.442Z,83.18
2023-03-17T05:50:08.171Z,81.73
2023-03-17T05:55:13.254Z,81.65
2023-03-17T06:00:17.054Z,81.73
2023-03-17T06:05:20.226Z,81.75
2023-03-17T06:10:25.173Z,81.76
2023-03-17T06:15:29.249Z,81.26
2023-03-17T06:20:32.887Z,81.79
2023-03-17T06:25:37.676Z,82.37
2023-03-17T06:30:41.073Z,82.12
2023-03-17T06:35:44.303Z,83.33
2023-03-17T06:40:49.072Z,82.69
2023-03-17T06:45:52.946Z,82.42
2023-03-17T06:50:56.523Z,83.10
2023-03-17T06:56:01.217Z,82.11
2023-03-17T07:01:04.455Z,82.17
2023-03-17T07:06:08.879Z,82.03
2023-03-17T07:11:13.507Z,81.63
2023-03-17T07:16:19.818Z,81.58
2023-03-17T07:21:23.050Z,81.32
2023-03-17T07:26:27.816Z,80.98
2023-03-17T07:31:31.143Z,80.95
2023-03-17T07:36:34.453Z,80.84
2023-03-17T07:41:39.076Z,81.58
2023-03-17T07:46:42.784Z,80.93
2023-03-17T07:51:45.982Z,80.75
2023-03-17T07:56:50.651Z,81.29
2023-03-17T08:01:53.931Z,80.60
2023-03-17T08:06:57.408Z,81.72
2023-03-17T08:12:02.210Z,81.26
2023-03-17T08:17:05.496Z,81.02
2023-03-17T08:22:09.149Z,81.15
2023-03-17T08:27:14.313Z,80.66
2023-03-17T08:32:17.654Z,76.42
2023-03-17T08:37:20.867Z,71.26
2023-03-17T08:42:25.530Z,66.50
2023-03-17T08:47:28.783Z,63.84
2023-03-17T08:52:32.653Z,60.06
2023-03-17T08:57:37.513Z,58.10
2023-03-17T09:02:43.306Z,62.79
2023-03-17T09:07:46.809Z,60.76
2023-03-17T09:12:51.843Z,54.55
2023-03-17T09:17:55.254Z,53.19
2023-03-17T09:22:58.537Z,52.37
2023-03-17T09:28:03.891Z,53.21
2023-03-17T09:33:07.145Z,51.45
2023-03-17T09:38:11.414Z,49.13
2023-03-17T09:43:27.597Z,49.25
2023-03-17T09:48:42.055Z,50.44
2023-03-17T09:53:52.980Z,59.32
2023-03-17T09:59:01.339Z,64.53
2023-03-17T10:04:04.844Z,66.89
2023-03-17T10:09:19.941Z,71.40
2023-03-17T10:14:39.901Z,72.45
2023-03-17T10:19:47.435Z,73.01
2023-03-17T10:24:54.000Z,72.19
2023-03-17T10:29:58.617Z,72.91
2023-03-17T10:35:02.752Z,73.14
2023-03-17T10:40:10.605Z,74.63
2023-03-17T10:45:18.095Z,74.46
2023-03-17T10:50:24.875Z,73.27
2023-03-17T10:55:32.751Z,72.14
2023-03-17T11:00:39.321Z,68.96
2023-03-17T11:05:55.321Z,64.48
2023-03-17T11:10:58.548Z,60.75
2023-03-17T11:16:11.931Z,62.22
2023-03-17T11:21:21.712Z,67.43
2023-03-17T11:26:40.270Z,70.92
2023-03-17T11:31:53.148Z,72.62
2023-03-17T11:37:07.063Z,74.04
2023-03-17T11:42:17.335Z,74.43
2023-03-17T11:47:43.085Z,75.50
2023-03-17T11:53:00.682Z,75.44
2023-03-17T11:58:09.720Z,74.48
2023-03-17T12:03:22.380Z,73.41
2023-03-17T12:08:31.525Z,71.85
2023-03-17T12:13:40.372Z,71.33
2023-03-17T12:18:54.737Z,70.91
2023-03-17T12:24:03.353Z,70.86
2023-03-17T12:29:14.285Z,70.30
2023-03-17T12:34:24.364Z,70.72
2023-03-17T12:39:33.882Z,70.88
2023-03-17T12:45:01.303Z,71.91
2023-03-17T12:50:28.693Z,72.15
2023-03-17T12:55:36.335Z,71.52
2023-03-17T13:00:51.044Z,70.72
2023-03-17T13:06:01.027Z,69.75
2023-03-17T13:11:21.339Z,69.04
2023-03-17T13:16:29.947Z,67.02
2023-03-17T13:21:36.534Z,61.53
2023-03-17T13:26:55.445Z,57.01
2023-03-17T13:32:31.991Z,57.96
2023-03-17T13:37:46.436Z,60.83
2023-03-17T13:43:09.717Z,57.39
2023-03-17T13:48:36.485Z,54.44
2023-03-17T13:53:43.230Z,57.42
2023-03-17T13:59:06.553Z,61.85
2023-03-17T14:04:20.983Z,63.86
2023-03-17T14:09:38.769Z,64.91
2023-03-17T14:14:53.823Z,61.74
2023-03-17T14:20:08.323Z,58.02
2023-03-17T14:25:18.359Z,57.95
2023-03-17T14:30:23.434Z,60.74
2023-03-17T14:35:30.829Z,61.07
2023-03-17T14:40:37.090Z,59.99
2023-03-17T14:45:53.714Z,59.83
2023-03-17T14:51:05.321Z,56.77
2023-03-17T14:56:10.637Z,57.18
2023-03-17T15:01:17.914Z,59.28
2023-03-17T15:06:26.167Z,59.64
2023-03-17T15:11:40.131Z,59.88
2023-03-17T15:16:46.993Z,62.59
2023-03-17T15:21:50.757Z,66.00
2023-03-17T15:27:02.837Z,66.83
2023-03-17T15:32:13.059Z,67.05
2023-03-17T15:37:18.535Z,65.97
2023-03-17T15:42:25.783Z,67.29
2023-03-17T15:47:30.781Z,70.79
2023-03-17T15:52:34.533Z,72.81
2023-03-17T15:57:39.084Z,71.81
2023-03-17T16:02:42.976Z,71.07
2023-03-17T16:07:47.041Z,71.04
2023-03-17T16:12:52.402Z,70.33
2023-03-17T16:17:58.483Z,68.41
2023-03-17T16:23:08.584Z,67.86
2023-03-17T16:28:18.274Z,66.75
2023-03-17T16:33:23.942Z,66.55
2023-03-17T16:38:30.046Z,65.79
2023-03-17T16:43:37.963Z,65.64
2023-03-17T16:48:41.162Z,66.19
2023-03-17T16:53:44.614Z,66.62
2023-03-17T16:58:49.739Z,67.48
2023-03-17T17:03:53.175Z,71.61
2023-03-17T17:08:56.346Z,74.26
2023-03-17T17:14:01.022Z,74.93
2023-03-17T17:19:05.048Z,77.07
2023-03-17T17:24:11.778Z,76.83
2023-03-17T17:29:16.358Z,76.85
2023-03-17T17:34:19.487Z,76.45
2023-03-17T17:39:22.595Z,76.18
2023-03-17T17:44:27.301Z,74.95
2023-03-17T17:49:30.481Z,74.85
2023-03-17T17:54:34.788Z,74.57
2023-03-17T17:59:39.429Z,74.39
2023-03-17T18:04:42.689Z,75.03
2023-03-17T18:09:45.909Z,74.96
2023-03-17T18:14:50.490Z,75.11
2023-03-17T18:19:54.049Z,74.95
2023-03-17T18:24:57.215Z,75.07
2023-03-17T18:30:02.036Z,75.52
2023-03-17T18:35:09.480Z,75.55
2023-03-17T18:40:17.271Z,75.43
2023-03-17T18:45:23.926Z,75.69
2023-03-17T18:50:27.561Z,75.62
2023-03-17T18:55:30.766Z,76.07
2023-03-17T19:00:35.568Z,76.38
2023-03-17T19:05:39.823Z,76.68
2023-03-17T19:10:44.308Z,76.55
2023-03-17T19:15:48.950Z,77.21
2023-03-17T19:20:52.746Z,77.14
2023-03-17T19:25:56.061Z,77.17
2023-03-17T19:31:00.825Z,77.13
2023-03-17T19:36:08.755Z,77.12
2023-03-17T19:41:12.174Z,77.07
2023-03-17T19:46:16.823Z,76.74
2023-03-17T19:51:20.155Z,77.28
2023-03-17T19:56:23.756Z,77.10
2023-03-17T20:01:29.418Z,77.14
2023-03-17T20:06:32.712Z,77.22
2023-03-17T20:11:36.283Z,76.79
2023-03-17T20:16:41.560Z,77.03
2023-03-17T20:21:45.022Z,77.66
2023-03-17T20:26:49.685Z,77.67
2023-03-17T20:31:54.340Z,77.83
2023-03-17T20:36:57.598Z,78.33
2023-03-17T20:42:01.780Z,79.24
2023-03-17T20:47:06.527Z,78.75
2023-03-17T20:52:13.679Z,78.81
2023-03-17T20:57:16.968Z,78.69
2023-03-17T21:02:23.452Z,78.40
2023-03-17T21:07:26.598Z,78.44
2023-03-17T21:12:29.942Z,78.38
2023-03-17T21:17:34.868Z,77.69
2023-03-17T21:22:38.216Z,78.01
2023-03-17T21:27:42.197Z,77.70
2023-03-17T21:32:46.967Z,77.69
2023-03-17T21:37:50.776Z,77.82
2023-03-17T21:42:54.451Z,78.01
2023-03-17T21:47:59.076Z,77.84
2023-03-17T21:53:02.346Z,77.55
2023-03-17T21:58:05.588Z,77.79
2023-03-17T22:03:10.415Z,78.16
2023-03-17T22:08:13.731Z,78.20
2023-03-17T22:13:17.129Z,78.49
2023-03-17T22:18:22.174Z,78.44
2023-03-17T22:23:25.839Z,78.58
2023-03-17T22:28:29.333Z,78.16
2023-03-17T22:33:34.476Z,78.17
2023-03-17T22:38:38.041Z,78.64
2023-03-17T22:43:41.925Z,79.05
2023-03-17T22:48:47.454Z,78.57
2023-03-17T22:53:51.443Z,78.73
2023-03-17T22:58:54.975Z,80.46
2023-03-17T23:03:59.738Z,80.82
2023-03-17T23:09:03.173Z,80.05
2023-03-17T23:14:06.448Z,79.86
2023-03-17T23:19:11.007Z,79.51
2023-03-17T23:24:14.457Z,79.88
2023-03-17T23:29:17.826Z,80.45
2023-03-17T23:34:22.634Z,80.63
2023-03-17T23:39:26.016Z,80.58
2023-03-17T23:44:29.284Z,80.52
2023-03-17T23:49:33.907Z,80.82
2023-03-17T23:54:38.920Z,81.02
2023-03-17T23:59:42.024Z,81.00
